<?xml version="1.0" encoding="UTF-8" standalone="no" ?>
<gpx xmlns="http://www.topografix.com/GPX/1/1" xmlns:xsi="http://www.w3.org/2001/XMLSchema-instance" xsi:schemaLocation="http://www.topografix.com/GPX/1/1 http://www.topografix.com/GPX/1/1/gpx.xsd" version="1.1" creator="VisuGPX - https://www.visugpx.com">
  <metadata>
    <name>Arthies -- Villarceaux</name>
  </metadata>
  <trk>
    <name><![CDATA[Randonnée du 06/03/2022 à 17:12]]></name>
    <extensions>
      <line xmlns="http://www.topografix.com/GPX/gpx_style/0/2">
        <color>0000FF</color>
        <width>4</width>
      </line>
    </extensions>
    <trkseg>
      <trkpt lat="49.09406" lon="1.78982">
        <ele>170.1</ele>
        <time>2022-03-06T19:11:04+01:00</time>
      </trkpt>
      <trkpt lat="49.09422" lon="1.78993">
        <ele>168.9</ele>
        <time>2022-03-06T19:11:23+01:00</time>
      </trkpt>
      <trkpt lat="49.09453" lon="1.7898">
        <ele>167.4</ele>
        <time>2022-03-06T19:12:00+01:00</time>
      </trkpt>
      <trkpt lat="49.09479" lon="1.78983">
        <ele>166.2</ele>
      </trkpt>
      <trkpt lat="49.09532" lon="1.7901">
        <ele>162.8</ele>
        <time>2022-03-06T19:13:32+01:00</time>
      </trkpt>
      <trkpt lat="49.0959" lon="1.79047">
        <ele>159.1</ele>
      </trkpt>
      <trkpt lat="49.09654" lon="1.79114">
        <ele>155.5</ele>
        <time>2022-03-06T19:16:15+01:00</time>
      </trkpt>
      <trkpt lat="49.09702" lon="1.79146">
        <ele>153.7</ele>
        <time>2022-03-06T19:17:11+01:00</time>
      </trkpt>
      <trkpt lat="49.09768" lon="1.78899">
        <ele>148.7</ele>
        <time>2022-03-06T19:20:31+01:00</time>
      </trkpt>
      <trkpt lat="49.09804" lon="1.78815">
        <ele>147</ele>
        <time>2022-03-06T19:21:43+01:00</time>
      </trkpt>
      <trkpt lat="49.09806" lon="1.78791">
        <ele>147</ele>
      </trkpt>
      <trkpt lat="49.09796" lon="1.78745">
        <ele>147.2</ele>
      </trkpt>
      <trkpt lat="49.0979" lon="1.78699">
        <ele>145.7</ele>
        <time>2022-03-06T19:23:16+01:00</time>
      </trkpt>
      <trkpt lat="49.09789" lon="1.78616">
        <ele>142.8</ele>
        <time>2022-03-06T19:24:18+01:00</time>
      </trkpt>
      <trkpt lat="49.09797" lon="1.78509">
        <ele>141.3</ele>
        <time>2022-03-06T19:25:37+01:00</time>
      </trkpt>
      <trkpt lat="49.09843" lon="1.78317">
        <ele>144.9</ele>
      </trkpt>
      <trkpt lat="49.0986" lon="1.78234">
        <ele>148.6</ele>
        <time>2022-03-06T19:30:09+01:00</time>
      </trkpt>
      <trkpt lat="49.09874" lon="1.78036">
        <ele>154.3</ele>
      </trkpt>
      <trkpt lat="49.0989" lon="1.77877">
        <ele>159.4</ele>
        <time>2022-03-06T19:37:23+01:00</time>
      </trkpt>
      <trkpt lat="49.09898" lon="1.77862">
        <ele>160</ele>
      </trkpt>
      <trkpt lat="49.09925" lon="1.77834">
        <ele>160.7</ele>
      </trkpt>
      <trkpt lat="49.09954" lon="1.7781">
        <ele>161.7</ele>
        <time>2022-03-06T19:39:04+01:00</time>
      </trkpt>
      <trkpt lat="49.09985" lon="1.77601">
        <ele>169.2</ele>
        <time>2022-03-06T19:42:39+01:00</time>
      </trkpt>
      <trkpt lat="49.09955" lon="1.77523">
        <ele>169</ele>
        <time>2022-03-06T19:43:42+01:00</time>
      </trkpt>
      <trkpt lat="49.09985" lon="1.77495">
        <ele>167.4</ele>
        <time>2022-03-06T19:44:31+01:00</time>
      </trkpt>
      <trkpt lat="49.09996" lon="1.77376">
        <ele>162.7</ele>
        <time>2022-03-06T19:45:57+01:00</time>
      </trkpt>
      <trkpt lat="49.10051" lon="1.77307">
        <ele>157.3</ele>
      </trkpt>
      <trkpt lat="49.10074" lon="1.77292">
        <ele>156.5</ele>
        <time>2022-03-06T19:47:49+01:00</time>
      </trkpt>
      <trkpt lat="49.10189" lon="1.77277">
        <ele>151.2</ele>
        <time>2022-03-06T19:50:01+01:00</time>
      </trkpt>
      <trkpt lat="49.10282" lon="1.77214">
        <ele>147.9</ele>
        <time>2022-03-06T19:51:58+01:00</time>
      </trkpt>
      <trkpt lat="49.10383" lon="1.77129">
        <ele>147.3</ele>
        <time>2022-03-06T19:54:10+01:00</time>
      </trkpt>
      <trkpt lat="49.10459" lon="1.77082">
        <ele>146.4</ele>
        <time>2022-03-06T19:55:45+01:00</time>
      </trkpt>
      <trkpt lat="49.10655" lon="1.77671">
        <ele>141</ele>
      </trkpt>
      <trkpt lat="49.10665" lon="1.77679">
        <ele>141</ele>
        <time>2022-03-06T20:04:04+01:00</time>
      </trkpt>
      <trkpt lat="49.10805" lon="1.7769">
        <ele>139</ele>
        <time>2022-03-06T20:06:46+01:00</time>
      </trkpt>
      <trkpt lat="49.10946" lon="1.77755">
        <ele>135.1</ele>
        <time>2022-03-06T20:09:35+01:00</time>
      </trkpt>
      <trkpt lat="49.11317" lon="1.77911">
        <ele>129</ele>
        <time>2022-03-06T20:16:56+01:00</time>
      </trkpt>
      <trkpt lat="49.11404" lon="1.7795">
        <ele>127.8</ele>
        <time>2022-03-06T20:19:04+01:00</time>
      </trkpt>
      <trkpt lat="49.11504" lon="1.77962">
        <ele>125.2</ele>
      </trkpt>
      <trkpt lat="49.11655" lon="1.77957">
        <ele>121.2</ele>
      </trkpt>
      <trkpt lat="49.11784" lon="1.77994">
        <ele>114.9</ele>
        <time>2022-03-06T20:26:00+01:00</time>
      </trkpt>
      <trkpt lat="49.11831" lon="1.7773">
        <ele>116.4</ele>
      </trkpt>
      <trkpt lat="49.11848" lon="1.77649">
        <ele>114.6</ele>
        <time>2022-03-06T20:30:26+01:00</time>
      </trkpt>
      <trkpt lat="49.11934" lon="1.77561">
        <ele>108.1</ele>
        <time>2022-03-06T20:32:16+01:00</time>
      </trkpt>
      <trkpt lat="49.11929" lon="1.77539">
        <ele>107.1</ele>
      </trkpt>
      <trkpt lat="49.11939" lon="1.77448">
        <ele>107</ele>
        <time>2022-03-06T20:34:01+01:00</time>
      </trkpt>
      <trkpt lat="49.11947" lon="1.77442">
        <ele>107.2</ele>
      </trkpt>
      <trkpt lat="49.12015" lon="1.77304">
        <ele>106.5</ele>
        <time>2022-03-06T20:35:58+01:00</time>
      </trkpt>
      <trkpt lat="49.12055" lon="1.77214">
        <ele>105.3</ele>
        <time>2022-03-06T20:38:27+01:00</time>
      </trkpt>
      <trkpt lat="49.12079" lon="1.77131">
        <ele>103.2</ele>
        <time>2022-03-06T20:39:43+01:00</time>
      </trkpt>
      <trkpt lat="49.12094" lon="1.77074">
        <ele>105.3</ele>
      </trkpt>
      <trkpt lat="49.12097" lon="1.77008">
        <ele>105.1</ele>
        <time>2022-03-06T20:41:06+01:00</time>
      </trkpt>
      <trkpt lat="49.12096" lon="1.76961">
        <ele>104.6</ele>
        <time>2022-03-06T20:42:55+01:00</time>
      </trkpt>
      <trkpt lat="49.12123" lon="1.76945">
        <ele>107.7</ele>
      </trkpt>
      <trkpt lat="49.12158" lon="1.76875">
        <ele>112</ele>
        <time>2022-03-06T20:45:30+01:00</time>
      </trkpt>
      <trkpt lat="49.12209" lon="1.76823">
        <ele>118.5</ele>
      </trkpt>
      <trkpt lat="49.12203" lon="1.76706">
        <ele>117.4</ele>
      </trkpt>
      <trkpt lat="49.12213" lon="1.76423">
        <ele>121.3</ele>
        <time>2022-03-06T20:49:30+01:00</time>
      </trkpt>
      <trkpt lat="49.12185" lon="1.76356">
        <ele>115.2</ele>
        <time>2022-03-06T20:51:32+01:00</time>
      </trkpt>
      <trkpt lat="49.12166" lon="1.76266">
        <ele>111.8</ele>
      </trkpt>
      <trkpt lat="49.12162" lon="1.76172">
        <ele>110.2</ele>
        <time>2022-03-06T20:52:31+01:00</time>
      </trkpt>
      <trkpt lat="49.12172" lon="1.76114">
        <ele>109.9</ele>
        <time>2022-03-06T20:53:53+01:00</time>
      </trkpt>
      <trkpt lat="49.12249" lon="1.75903">
        <ele>101.9</ele>
        <time>2022-03-06T20:56:54+01:00</time>
      </trkpt>
      <trkpt lat="49.12279" lon="1.75826">
        <ele>98.8</ele>
        <time>2022-03-06T20:58:01+01:00</time>
      </trkpt>
      <trkpt lat="49.12366" lon="1.75751">
        <ele>96.1</ele>
        <time>2022-03-06T20:59:56+01:00</time>
      </trkpt>
      <trkpt lat="49.12481" lon="1.75666">
        <ele>89.6</ele>
        <time>2022-03-06T21:02:22+01:00</time>
      </trkpt>
      <trkpt lat="49.12518" lon="1.75598">
        <ele>87.8</ele>
        <time>2022-03-06T21:03:28+01:00</time>
      </trkpt>
      <trkpt lat="49.1253" lon="1.75475">
        <ele>85.2</ele>
        <time>2022-03-06T21:05:24+01:00</time>
      </trkpt>
      <trkpt lat="49.12554" lon="1.7541">
        <ele>84</ele>
      </trkpt>
      <trkpt lat="49.12592" lon="1.75371">
        <ele>84.4</ele>
        <time>2022-03-06T21:06:51+01:00</time>
      </trkpt>
      <trkpt lat="49.12597" lon="1.75351">
        <ele>84.3</ele>
        <time>2022-03-06T21:07:06+01:00</time>
      </trkpt>
      <trkpt lat="49.12647" lon="1.75311">
        <ele>85.2</ele>
        <time>2022-03-06T21:08:22+01:00</time>
      </trkpt>
      <trkpt lat="49.12689" lon="1.75249">
        <ele>83.7</ele>
        <time>2022-03-06T21:09:29+01:00</time>
      </trkpt>
      <trkpt lat="49.12661" lon="1.75166">
        <ele>81.2</ele>
        <time>2022-03-06T21:10:39+01:00</time>
      </trkpt>
      <trkpt lat="49.12658" lon="1.75141">
        <ele>81.6</ele>
        <time>2022-03-06T21:11:37+01:00</time>
      </trkpt>
      <trkpt lat="49.12649" lon="1.75117">
        <ele>83.1</ele>
      </trkpt>
      <trkpt lat="49.12641" lon="1.75118">
        <ele>83.6</ele>
      </trkpt>
      <trkpt lat="49.12622" lon="1.75053">
        <ele>86.5</ele>
        <time>2022-03-06T21:13:17+01:00</time>
      </trkpt>
      <trkpt lat="49.12606" lon="1.74976">
        <ele>94.5</ele>
        <time>2022-03-06T21:15:19+01:00</time>
      </trkpt>
      <trkpt lat="49.12563" lon="1.74824">
        <ele>110.6</ele>
        <time>2022-03-06T21:19:57+01:00</time>
      </trkpt>
      <trkpt lat="49.12532" lon="1.74812">
        <ele>113.8</ele>
        <time>2022-03-06T21:21:05+01:00</time>
      </trkpt>
      <trkpt lat="49.12514" lon="1.74768">
        <ele>120</ele>
      </trkpt>
      <trkpt lat="49.12519" lon="1.7475">
        <ele>120.7</ele>
        <time>2022-03-06T21:22:42+01:00</time>
      </trkpt>
      <trkpt lat="49.1249" lon="1.747">
        <ele>123.3</ele>
        <time>2022-03-06T21:23:52+01:00</time>
      </trkpt>
      <trkpt lat="49.12505" lon="1.74693">
        <ele>122.8</ele>
        <time>2022-03-06T21:24:09+01:00</time>
      </trkpt>
      <trkpt lat="49.12478" lon="1.74622">
        <ele>122.3</ele>
        <time>2022-03-06T21:25:11+01:00</time>
      </trkpt>
      <trkpt lat="49.124" lon="1.74516">
        <ele>122.1</ele>
        <time>2022-03-06T21:27:10+01:00</time>
      </trkpt>
      <trkpt lat="49.12376" lon="1.74502">
        <ele>122.6</ele>
      </trkpt>
      <trkpt lat="49.12346" lon="1.745">
        <ele>124.1</ele>
        <time>2022-03-06T21:28:48+01:00</time>
      </trkpt>
      <trkpt lat="49.12169" lon="1.74308">
        <ele>119.1</ele>
        <time>2022-03-06T21:33:17+01:00</time>
      </trkpt>
      <trkpt lat="49.12124" lon="1.74288">
        <ele>114.8</ele>
        <time>2022-03-06T21:34:11+01:00</time>
      </trkpt>
      <trkpt lat="49.12075" lon="1.74301">
        <ele>112.7</ele>
        <time>2022-03-06T21:35:08+01:00</time>
      </trkpt>
      <trkpt lat="49.12032" lon="1.74291">
        <ele>108.2</ele>
        <time>2022-03-06T21:35:57+01:00</time>
      </trkpt>
      <trkpt lat="49.12002" lon="1.7426">
        <ele>103.5</ele>
      </trkpt>
      <trkpt lat="49.11896" lon="1.74292">
        <ele>100.9</ele>
        <time>2022-03-06T21:38:51+01:00</time>
      </trkpt>
      <trkpt lat="49.11858" lon="1.74222">
        <ele>98.2</ele>
        <time>2022-03-06T21:39:52+01:00</time>
      </trkpt>
      <trkpt lat="49.11845" lon="1.74182">
        <ele>102.3</ele>
        <time>2022-03-06T21:40:18+01:00</time>
      </trkpt>
      <trkpt lat="49.11816" lon="1.74156">
        <ele>105.9</ele>
      </trkpt>
      <trkpt lat="49.11809" lon="1.74126">
        <ele>109.3</ele>
      </trkpt>
      <trkpt lat="49.11791" lon="1.74114">
        <ele>109.8</ele>
      </trkpt>
      <trkpt lat="49.11773" lon="1.7406">
        <ele>113.6</ele>
        <time>2022-03-06T21:44:04+01:00</time>
      </trkpt>
      <trkpt lat="49.11737" lon="1.74">
        <ele>118.5</ele>
        <time>2022-03-06T21:46:38+01:00</time>
      </trkpt>
      <trkpt lat="49.11676" lon="1.73843">
        <ele>126.4</ele>
        <time>2022-03-06T21:50:53+01:00</time>
      </trkpt>
      <trkpt lat="49.11685" lon="1.73792">
        <ele>128.8</ele>
      </trkpt>
      <trkpt lat="49.1175" lon="1.73724">
        <ele>131</ele>
        <time>2022-03-06T21:53:20+01:00</time>
      </trkpt>
      <trkpt lat="49.11899" lon="1.73642">
        <ele>131.5</ele>
        <time>2022-03-06T21:56:20+01:00</time>
      </trkpt>
      <trkpt lat="49.12075" lon="1.73448">
        <ele>129</ele>
        <time>2022-03-06T22:00:15+01:00</time>
      </trkpt>
      <trkpt lat="49.12148" lon="1.73545">
        <ele>127.7</ele>
        <time>2022-03-06T22:02:35+01:00</time>
      </trkpt>
      <trkpt lat="49.12152" lon="1.73605">
        <ele>125.1</ele>
        <time>2022-03-06T22:05:15+01:00</time>
      </trkpt>
      <trkpt lat="49.12213" lon="1.73813">
        <ele>107.9</ele>
        <time>2022-03-06T22:06:38+01:00</time>
      </trkpt>
      <trkpt lat="49.12245" lon="1.73843">
        <ele>105</ele>
      </trkpt>
      <trkpt lat="49.12276" lon="1.7389">
        <ele>97.6</ele>
        <time>2022-03-06T22:08:01+01:00</time>
      </trkpt>
      <trkpt lat="49.12324" lon="1.73929">
        <ele>95</ele>
        <time>2022-03-06T22:09:06+01:00</time>
      </trkpt>
      <trkpt lat="49.1236" lon="1.74007">
        <ele>87.7</ele>
        <time>2022-03-06T22:10:23+01:00</time>
      </trkpt>
      <trkpt lat="49.12364" lon="1.74063">
        <ele>87</ele>
        <time>2022-03-06T22:11:35+01:00</time>
      </trkpt>
      <trkpt lat="49.12356" lon="1.74108">
        <ele>87.3</ele>
      </trkpt>
      <trkpt lat="49.12357" lon="1.74146">
        <ele>88.5</ele>
      </trkpt>
      <trkpt lat="49.12369" lon="1.74179">
        <ele>89.6</ele>
        <time>2022-03-06T22:14:01+01:00</time>
      </trkpt>
      <trkpt lat="49.1243" lon="1.74293">
        <ele>97.6</ele>
      </trkpt>
      <trkpt lat="49.12457" lon="1.74316">
        <ele>97.6</ele>
        <time>2022-03-06T22:17:09+01:00</time>
      </trkpt>
      <trkpt lat="49.12503" lon="1.74374">
        <ele>99.9</ele>
        <time>2022-03-06T22:18:17+01:00</time>
      </trkpt>
      <trkpt lat="49.12516" lon="1.74427">
        <ele>103.9</ele>
        <time>2022-03-06T22:19:30+01:00</time>
      </trkpt>
      <trkpt lat="49.12527" lon="1.7447">
        <ele>108.7</ele>
        <time>2022-03-06T22:21:11+01:00</time>
      </trkpt>
      <trkpt lat="49.12581" lon="1.7449">
        <ele>109</ele>
        <time>2022-03-06T22:22:31+01:00</time>
      </trkpt>
      <trkpt lat="49.12586" lon="1.74469">
        <ele>106.8</ele>
        <time>2022-03-06T22:23:17+01:00</time>
      </trkpt>
      <trkpt lat="49.12623" lon="1.74424">
        <ele>103.5</ele>
        <time>2022-03-06T22:24:11+01:00</time>
      </trkpt>
      <trkpt lat="49.12676" lon="1.74344">
        <ele>97.7</ele>
        <time>2022-03-06T22:25:36+01:00</time>
      </trkpt>
      <trkpt lat="49.12744" lon="1.74203">
        <ele>84.4</ele>
        <time>2022-03-06T22:27:47+01:00</time>
      </trkpt>
      <trkpt lat="49.12786" lon="1.74122">
        <ele>79.4</ele>
        <time>2022-03-06T22:29:05+01:00</time>
      </trkpt>
      <trkpt lat="49.12798" lon="1.74066">
        <ele>79</ele>
        <time>2022-03-06T22:29:49+01:00</time>
      </trkpt>
      <trkpt lat="49.12788" lon="1.73958">
        <ele>82.3</ele>
        <time>2022-03-06T22:31:21+01:00</time>
      </trkpt>
      <trkpt lat="49.12759" lon="1.73803">
        <ele>91.8</ele>
        <time>2022-03-06T22:34:44+01:00</time>
      </trkpt>
      <trkpt lat="49.12686" lon="1.73683">
        <ele>103.1</ele>
        <time>2022-03-06T22:39:00+01:00</time>
      </trkpt>
      <trkpt lat="49.12605" lon="1.73535">
        <ele>111.3</ele>
        <time>2022-03-06T22:42:26+01:00</time>
      </trkpt>
      <trkpt lat="49.12513" lon="1.73411">
        <ele>118.7</ele>
        <time>2022-03-06T22:46:49+01:00</time>
      </trkpt>
      <trkpt lat="49.12444" lon="1.72981">
        <ele>129</ele>
        <time>2022-03-06T22:53:43+01:00</time>
      </trkpt>
      <trkpt lat="49.12474" lon="1.72501">
        <ele>136</ele>
        <time>2022-03-06T23:00:36+01:00</time>
      </trkpt>
      <trkpt lat="49.12405" lon="1.72381">
        <ele>136</ele>
        <time>2022-03-06T23:02:46+01:00</time>
      </trkpt>
      <trkpt lat="49.12364" lon="1.72293">
        <ele>136</ele>
        <time>2022-03-06T23:04:07+01:00</time>
      </trkpt>
      <trkpt lat="49.12318" lon="1.72149">
        <ele>135</ele>
        <time>2022-03-06T23:06:07+01:00</time>
      </trkpt>
      <trkpt lat="49.12176" lon="1.71893">
        <ele>134</ele>
        <time>2022-03-06T23:10:29+01:00</time>
      </trkpt>
      <trkpt lat="49.12037" lon="1.7168">
        <ele>134</ele>
        <time>2022-03-06T23:14:14+01:00</time>
      </trkpt>
      <trkpt lat="49.12003" lon="1.71621">
        <ele>133.9</ele>
        <time>2022-03-06T23:15:13+01:00</time>
      </trkpt>
      <trkpt lat="49.11797" lon="1.71402">
        <ele>128.1</ele>
        <time>2022-03-06T23:20:00+01:00</time>
      </trkpt>
      <trkpt lat="49.118" lon="1.72643">
        <ele>141.2</ele>
        <time>2022-03-06T23:37:44+01:00</time>
      </trkpt>
      <trkpt lat="49.11748" lon="1.72576">
        <ele>142</ele>
        <time>2022-03-06T23:39:13+01:00</time>
      </trkpt>
      <trkpt lat="49.11308" lon="1.73047">
        <ele>140.3</ele>
        <time>2022-03-06T23:49:29+01:00</time>
      </trkpt>
      <trkpt lat="49.11295" lon="1.7277">
        <ele>140.2</ele>
        <time>2022-03-06T23:53:18+01:00</time>
      </trkpt>
      <trkpt lat="49.11265" lon="1.72772">
        <ele>138.1</ele>
        <time>2022-03-06T23:54:03+01:00</time>
      </trkpt>
      <trkpt lat="49.11135" lon="1.72631">
        <ele>132.9</ele>
        <time>2022-03-06T23:57:05+01:00</time>
      </trkpt>
      <trkpt lat="49.10765" lon="1.73476">
        <ele>133.6</ele>
        <time>2022-03-07T00:10:18+01:00</time>
      </trkpt>
      <trkpt lat="49.10846" lon="1.73566">
        <ele>139.8</ele>
        <time>2022-03-07T00:12:33+01:00</time>
      </trkpt>
      <trkpt lat="49.10706" lon="1.73821">
        <ele>133.5</ele>
        <time>2022-03-07T00:16:42+01:00</time>
      </trkpt>
      <trkpt lat="49.10642" lon="1.73757">
        <ele>134</ele>
        <time>2022-03-07T00:18:10+01:00</time>
      </trkpt>
      <trkpt lat="49.10525" lon="1.7402">
        <ele>137.4</ele>
        <time>2022-03-07T00:22:50+01:00</time>
      </trkpt>
      <trkpt lat="49.10358" lon="1.74497">
        <ele>143.9</ele>
        <time>2022-03-07T00:30:47+01:00</time>
      </trkpt>
      <trkpt lat="49.103" lon="1.74918">
        <ele>150</ele>
        <time>2022-03-07T00:36:51+01:00</time>
      </trkpt>
      <trkpt lat="49.10215" lon="1.74937">
        <ele>152</ele>
        <time>2022-03-07T00:38:50+01:00</time>
      </trkpt>
      <trkpt lat="49.10141" lon="1.75026">
        <ele>154.8</ele>
        <time>2022-03-07T00:41:50+01:00</time>
      </trkpt>
      <trkpt lat="49.09984" lon="1.75226">
        <ele>168</ele>
        <time>2022-03-07T00:48:49+01:00</time>
      </trkpt>
      <trkpt lat="49.09934" lon="1.75259">
        <ele>175.3</ele>
        <time>2022-03-07T00:50:42+01:00</time>
      </trkpt>
      <trkpt lat="49.09872" lon="1.75256">
        <ele>182</ele>
        <time>2022-03-07T00:52:45+01:00</time>
      </trkpt>
      <trkpt lat="49.09609" lon="1.75342">
        <ele>199.1</ele>
        <time>2022-03-07T01:00:48+01:00</time>
      </trkpt>
      <trkpt lat="49.09427" lon="1.75365">
        <ele>201</ele>
        <time>2022-03-07T01:05:08+01:00</time>
      </trkpt>
      <trkpt lat="49.08951" lon="1.75381">
        <ele>202.2</ele>
        <time>2022-03-07T01:14:14+01:00</time>
      </trkpt>
      <trkpt lat="49.08963" lon="1.75506">
        <ele>203</ele>
        <time>2022-03-07T01:16:40+01:00</time>
      </trkpt>
      <trkpt lat="49.0901" lon="1.75692">
        <ele>204</ele>
        <time>2022-03-07T01:19:30+01:00</time>
      </trkpt>
      <trkpt lat="49.09043" lon="1.76076">
        <ele>202.7</ele>
        <time>2022-03-07T01:24:20+01:00</time>
      </trkpt>
      <trkpt lat="49.09065" lon="1.76185">
        <ele>200.6</ele>
        <time>2022-03-07T01:25:46+01:00</time>
      </trkpt>
      <trkpt lat="49.09112" lon="1.76311">
        <ele>200.1</ele>
        <time>2022-03-07T01:27:35+01:00</time>
      </trkpt>
      <trkpt lat="49.08975" lon="1.76299">
        <ele>203.2</ele>
        <time>2022-03-07T01:30:23+01:00</time>
      </trkpt>
      <trkpt lat="49.08988" lon="1.76091">
        <ele>204</ele>
        <time>2022-03-07T01:34:22+01:00</time>
      </trkpt>
      <trkpt lat="49.08891" lon="1.76095">
        <ele>204</ele>
        <time>2022-03-07T01:36:14+01:00</time>
      </trkpt>
      <trkpt lat="49.08831" lon="1.76079">
        <ele>203.2</ele>
        <time>2022-03-07T01:37:23+01:00</time>
      </trkpt>
      <trkpt lat="49.08807" lon="1.76057">
        <ele>203.1</ele>
        <time>2022-03-07T01:38:05+01:00</time>
      </trkpt>
      <trkpt lat="49.08741" lon="1.76041">
        <ele>200.7</ele>
        <time>2022-03-07T01:39:31+01:00</time>
      </trkpt>
      <trkpt lat="49.08713" lon="1.76132">
        <ele>200.7</ele>
        <time>2022-03-07T01:40:47+01:00</time>
      </trkpt>
      <trkpt lat="49.08705" lon="1.76192">
        <ele>200</ele>
        <time>2022-03-07T01:41:33+01:00</time>
      </trkpt>
      <trkpt lat="49.08693" lon="1.76231">
        <ele>199</ele>
        <time>2022-03-07T01:42:16+01:00</time>
      </trkpt>
      <trkpt lat="49.08663" lon="1.76228">
        <ele>198.7</ele>
        <time>2022-03-07T01:43:01+01:00</time>
      </trkpt>
      <trkpt lat="49.08666" lon="1.76511">
        <ele>196</ele>
        <time>2022-03-07T01:46:33+01:00</time>
      </trkpt>
      <trkpt lat="49.08667" lon="1.76651">
        <ele>196</ele>
        <time>2022-03-07T01:48:28+01:00</time>
      </trkpt>
      <trkpt lat="49.0867" lon="1.76708">
        <ele>194.8</ele>
        <time>2022-03-07T01:49:12+01:00</time>
      </trkpt>
      <trkpt lat="49.08716" lon="1.76722">
        <ele>198.5</ele>
        <time>2022-03-07T01:49:35+01:00</time>
      </trkpt>
      <trkpt lat="49.08718" lon="1.76843">
        <ele>198.9</ele>
        <time>2022-03-07T01:53:12+01:00</time>
      </trkpt>
      <trkpt lat="49.08784" lon="1.77005">
        <ele>198.8</ele>
        <time>2022-03-07T01:54:05+01:00</time>
      </trkpt>
      <trkpt lat="49.08804" lon="1.77056">
        <ele>198</ele>
        <time>2022-03-07T01:55:25+01:00</time>
      </trkpt>
      <trkpt lat="49.08841" lon="1.77127">
        <ele>195.5</ele>
      </trkpt>
      <trkpt lat="49.08848" lon="1.77163">
        <ele>194.2</ele>
      </trkpt>
      <trkpt lat="49.08914" lon="1.77273">
        <ele>197.9</ele>
        <time>2022-03-07T01:57:23+01:00</time>
      </trkpt>
      <trkpt lat="49.08976" lon="1.77266">
        <ele>200</ele>
        <time>2022-03-07T01:58:52+01:00</time>
      </trkpt>
      <trkpt lat="49.08996" lon="1.7739">
        <ele>199</ele>
        <time>2022-03-07T02:00:57+01:00</time>
      </trkpt>
      <trkpt lat="49.08984" lon="1.77761">
        <ele>200</ele>
        <time>2022-03-07T02:05:56+01:00</time>
      </trkpt>
      <trkpt lat="49.09006" lon="1.77962">
        <ele>201</ele>
        <time>2022-03-07T02:08:49+01:00</time>
      </trkpt>
      <trkpt lat="49.08992" lon="1.78099">
        <ele>201.3</ele>
        <time>2022-03-07T02:10:34+01:00</time>
      </trkpt>
      <trkpt lat="49.09001" lon="1.78171">
        <ele>201</ele>
        <time>2022-03-07T02:11:29+01:00</time>
      </trkpt>
      <trkpt lat="49.09018" lon="1.78362">
        <ele>200</ele>
        <time>2022-03-07T02:14:00+01:00</time>
      </trkpt>
      <trkpt lat="49.09045" lon="1.78718">
        <ele>200.6</ele>
        <time>2022-03-07T02:18:28+01:00</time>
      </trkpt>
      <trkpt lat="49.09044" lon="1.78764">
        <ele>200.4</ele>
        <time>2022-03-07T02:19:02+01:00</time>
      </trkpt>
      <trkpt lat="49.09062" lon="1.78952">
        <ele>198.2</ele>
        <time>2022-03-07T02:21:25+01:00</time>
      </trkpt>
      <trkpt lat="49.09087" lon="1.79131">
        <ele>195.5</ele>
        <time>2022-03-07T02:23:42+01:00</time>
      </trkpt>
      <trkpt lat="49.09096" lon="1.79175">
        <ele>194.6</ele>
        <time>2022-03-07T02:24:17+01:00</time>
      </trkpt>
      <trkpt lat="49.09119" lon="1.79226">
        <ele>192.7</ele>
        <time>2022-03-07T02:25:04+01:00</time>
      </trkpt>
      <trkpt lat="49.09211" lon="1.79294">
        <ele>185.4</ele>
        <time>2022-03-07T02:27:01+01:00</time>
      </trkpt>
      <trkpt lat="49.0925" lon="1.79249">
        <ele>186.1</ele>
        <time>2022-03-07T02:28:07+01:00</time>
      </trkpt>
      <trkpt lat="49.09269" lon="1.79225">
        <ele>186</ele>
        <time>2022-03-07T02:28:36+01:00</time>
      </trkpt>
      <trkpt lat="49.09272" lon="1.79187">
        <ele>188.1</ele>
        <time>2022-03-07T02:29:15+01:00</time>
      </trkpt>
      <trkpt lat="49.09292" lon="1.79116">
        <ele>185.4</ele>
        <time>2022-03-07T02:30:13+01:00</time>
      </trkpt>
      <trkpt lat="49.09314" lon="1.78977">
        <ele>182.1</ele>
        <time>2022-03-07T02:32:00+01:00</time>
      </trkpt>
      <trkpt lat="49.0935" lon="1.7896">
        <ele>175.3</ele>
        <time>2022-03-07T02:32:42+01:00</time>
      </trkpt>
      <trkpt lat="49.09403" lon="1.78982">
        <ele>170.3</ele>
        <time>2022-03-07T02:33:34+01:00</time>
      </trkpt>
    </trkseg>
  </trk>
</gpx>